Time;durP1;ratioP1;P1;durP2;ratioP2;P2;SDS_P1;SDS_P2;PMS_P1;PMS_P2;Temp;Humidity;BMP_temperature;BMP_pressure;BME280_temperature;BME280_humidity;BME280_pressure;Samples;Min_cycle;Max_cycle;Signal;HPM_P1;HPM_P2
2022/08/12 00:44:21;;;;;;;6.13;3.33;;;18.50;99.90;;;;;;5037756;28;20136;-69
2022/08/12 00:46:50;;;;;;;7.97;3.35;;;18.50;99.90;;;;;;5011444;28;20049;-70
2022/08/12 00:49:17;;;;;;;7.20;3.40;;;18.50;99.90;;;;;;5035481;28;20037;-70
2022/08/12 00:54:30;;;;;;;5.93;3.47;;;18.40;99.90;;;;;;5037282;28;20132;-70
2022/08/12 00:56:59;;;;;;;5.03;3.08;;;18.40;99.90;;;;;;5037227;28;20065;-70
2022/08/12 00:59:24;;;;;;;6.07;3.28;;;18.40;99.90;;;;;;5037366;28;20053;-70
2022/08/12 01:01:53;;;;;;;6.50;3.33;;;18.40;99.90;;;;;;5031921;28;20045;-70
2022/08/12 01:12:37;;;;;;;5.70;2.95;;;18.20;99.90;;;;;;5036586;28;20049;-70
2022/08/12 01:15:04;;;;;;;4.30;2.83;;;18.20;99.90;;;;;;5037084;28;20045;-70
2022/08/12 01:17:30;;;;;;;6.28;2.90;;;18.20;99.90;;;;;;5036735;28;20438;-70
2022/08/12 01:20:01;;;;;;;4.47;2.63;;;18.20;99.90;;;;;;5036340;28;20473;-70
2022/08/12 01:23:04;;;;;;;5.10;2.78;;;18.20;99.90;;;;;;5023717;28;20136;-70
2022/08/12 01:25:36;;;;;;;5.67;3.17;;;18.20;99.90;;;;;;5037452;28;20101;-70
2022/08/12 01:28:03;;;;;;;4.50;2.60;;;18.20;99.90;;;;;;5037017;28;20045;-70
2022/08/12 01:30:32;;;;;;;5.00;2.50;;;18.20;99.90;;;;;;5036672;28;20044;-70
2022/08/12 01:33:01;;;;;;;9.13;2.83;;;18.20;99.90;;;;;;5036935;28;20052;-70
2022/08/12 01:35:30;;;;;;;5.15;2.58;;;18.20;99.90;;;;;;5036510;28;20049;-70
2022/08/12 01:37:59;;;;;;;5.40;2.55;;;18.20;99.90;;;;;;5035494;28;20054;-70
2022/08/12 01:40:33;;;;;;;3.65;2.30;;;18.20;99.90;;;;;;5035878;28;20061;-70
2022/08/12 01:43:07;;;;;;;5.72;2.90;;;18.10;99.90;;;;;;5036126;28;20461;-70
2022/08/12 01:45:39;;;;;;;4.18;2.60;;;18.10;99.90;;;;;;5036596;28;20045;-70
2022/08/12 01:48:33;;;;;;;5.93;2.75;;;18.20;99.90;;;;;;5036053;28;20037;-70
2022/08/12 01:51:08;;;;;;;3.88;2.38;;;18.10;99.90;;;;;;5002326;28;20061;-70
2022/08/12 01:53:58;;;;;;;4.88;2.50;;;18.00;99.90;;;;;;5036256;28;20041;-70
2022/08/12 01:56:29;;;;;;;5.57;2.80;;;18.00;99.90;;;;;;5035747;28;20053;-70
2022/08/12 02:01:49;;;;;;;3.67;2.35;;;17.90;99.90;;;;;;5036718;28;20373;-70
2022/08/12 02:11:17;;;;;;;5.03;2.85;;;17.90;99.90;;;;;;5035546;28;20057;-70
2022/08/12 02:13:48;;;;;;;5.63;2.88;;;17.80;99.90;;;;;;5036563;28;20057;-70
2022/08/12 02:16:22;;;;;;;6.03;3.00;;;17.80;99.90;;;;;;5035727;28;20132;-70
2022/08/12 02:19:12;;;;;;;5.82;3.05;;;17.70;99.90;;;;;;5035688;28;20055;-70
2022/08/12 02:22:01;;;;;;;6.03;3.47;;;17.80;99.90;;;;;;5035759;28;20121;-70
2022/08/12 02:24:30;;;;;;;5.95;3.17;;;17.70;99.90;;;;;;5035412;28;20056;-70
2022/08/12 02:26:58;;;;;;;5.30;2.92;;;17.70;99.90;;;;;;5035293;28;20410;-70
2022/08/12 02:29:24;;;;;;;6.20;2.90;;;17.60;99.90;;;;;;5036210;28;20120;-70
2022/08/12 02:31:51;;;;;;;5.30;2.97;;;17.50;99.90;;;;;;5001436;28;20049;-70
2022/08/12 02:34:17;;;;;;;8.95;4.13;;;17.60;99.90;;;;;;5035464;28;20107;-70
2022/08/12 02:36:44;;;;;;;5.78;3.45;;;17.60;99.90;;;;;;5035226;28;20057;-70
2022/08/12 02:39:13;;;;;;;5.28;3.28;;;17.50;99.90;;;;;;5035340;28;20060;-69
2022/08/12 02:41:42;;;;;;;8.43;3.42;;;17.60;99.90;;;;;;5034590;28;20041;-70
2022/08/12 02:44:09;;;;;;;10.52;3.40;;;17.50;99.90;;;;;;5035407;28;20045;-70
2022/08/12 02:46:37;;;;;;;6.57;3.03;;;17.50;99.90;;;;;;5035085;28;20060;-70
2022/08/12 02:49:18;;;;;;;6.05;3.20;;;17.40;99.90;;;;;;5035348;28;20049;-70
2022/08/12 02:51:43;;;;;;;6.47;3.42;;;17.40;99.90;;;;;;4980834;28;20055;-70
2022/08/12 02:54:09;;;;;;;6.85;3.67;;;17.40;99.90;;;;;;5032095;28;20037;-70
2022/08/12 02:56:39;;;;;;;9.38;3.53;;;17.40;99.90;;;;;;5034698;28;20106;-70
2022/08/12 02:59:11;;;;;;;12.68;4.03;;;17.40;99.90;;;;;;5035193;28;20433;-70
2022/08/12 03:01:46;;;;;;;8.77;4.05;;;17.30;99.90;;;;;;5035278;28;20053;-70
2022/08/12 03:04:18;;;;;;;7.05;3.53;;;17.30;99.90;;;;;;5034457;28;20354;-70
2022/08/12 03:06:50;;;;;;;5.90;3.17;;;17.20;99.90;;;;;;5035002;28;20057;-70
2022/08/12 03:09:17;;;;;;;10.07;3.75;;;17.20;99.90;;;;;;5017785;28;20655;-70
2022/08/12 03:11:55;;;;;;;5.75;3.92;;;17.20;99.90;;;;;;5034576;28;20397;-70
2022/08/12 03:14:26;;;;;;;7.15;3.88;;;17.20;99.90;;;;;;5035271;28;20049;-70
2022/08/12 03:17:22;;;;;;;6.38;3.50;;;17.20;99.90;;;;;;5017475;28;20060;-70
2022/08/12 03:19:52;;;;;;;6.25;3.88;;;17.10;99.90;;;;;;5035109;28;20045;-70
2022/08/12 03:22:19;;;;;;;6.25;3.63;;;17.00;99.90;;;;;;5035177;28;20540;-70
2022/08/12 03:24:44;;;;;;;7.72;3.63;;;17.00;99.90;;;;;;5034438;28;20053;-70
2022/08/12 03:27:13;;;;;;;8.70;4.25;;;17.00;99.90;;;;;;5034822;28;20460;-70
2022/08/12 03:29:40;;;;;;;8.95;3.90;;;17.00;99.90;;;;;;5034911;28;20042;-70
2022/08/12 03:32:06;;;;;;;7.60;3.83;;;16.90;99.90;;;;;;5035185;28;20037;-70
2022/08/12 03:34:35;;;;;;;6.45;3.85;;;17.00;99.90;;;;;;5035075;28;20081;-70
2022/08/12 03:37:03;;;;;;;6.15;3.28;;;16.90;99.90;;;;;;5034643;28;20057;-70
2022/08/12 03:39:40;;;;;;;8.18;4.00;;;16.90;99.90;;;;;;5034838;28;20168;-70
2022/08/12 03:42:24;;;;;;;6.40;3.55;;;16.80;99.90;;;;;;5035246;28;20045;-70
2022/08/12 04:01:56;;;;;;;5.90;3.58;;;16.80;99.90;;;;;;5034758;28;20056;-70
2022/08/12 04:04:33;;;;;;;8.40;3.17;;;16.70;99.90;;;;;;5035118;28;20116;-70
2022/08/12 04:07:06;;;;;;;5.35;3.00;;;16.70;99.90;;;;;;5034323;28;20045;-70
2022/08/12 04:09:34;;;;;;;5.63;3.47;;;16.70;99.90;;;;;;5034003;28;20046;-70
2022/08/12 04:14:44;;;;;;;7.07;3.28;;;16.70;99.90;;;;;;5034615;28;20050;-70
2022/08/12 04:17:11;;;;;;;8.20;4.15;;;16.70;99.90;;;;;;5037373;28;20048;-70
2022/08/12 04:19:37;;;;;;;7.15;3.53;;;16.70;99.90;;;;;;5037996;28;20041;-70
2022/08/12 04:22:02;;;;;;;6.57;3.15;;;16.70;99.90;;;;;;5020598;28;20447;-69
2022/08/12 04:24:35;;;;;;;5.13;2.83;;;16.70;99.90;;;;;;5037501;28;20124;-70
2022/08/12 04:27:06;;;;;;;5.55;2.90;;;16.70;99.90;;;;;;5038076;28;20080;-69
2022/08/12 04:29:33;;;;;;;6.43;3.42;;;16.70;99.90;;;;;;5038134;28;20112;-69
2022/08/12 04:31:58;;;;;;;5.60;2.70;;;16.70;99.90;;;;;;5020332;28;20081;-70
2022/08/12 04:34:25;;;;;;;8.68;2.95;;;16.70;99.90;;;;;;5037929;28;20429;-70
2022/08/12 04:36:52;;;;;;;5.90;2.80;;;16.70;99.90;;;;;;5019952;28;20049;-70
2022/08/12 04:39:20;;;;;;;5.00;3.10;;;16.70;99.90;;;;;;5037646;28;20041;-70
2022/08/12 04:41:48;;;;;;;6.90;2.90;;;16.70;99.90;;;;;;4983329;28;20517;-70
2022/08/12 04:44:14;;;;;;;6.82;3.70;;;16.70;99.90;;;;;;5015879;28;20382;-70
2022/08/12 04:46:40;;;;;;;5.25;3.00;;;16.80;99.90;;;;;;5037940;28;20342;-70
2022/08/12 04:49:05;;;;;;;6.18;3.63;;;16.80;99.90;;;;;;5037415;28;20033;-70
2022/08/12 04:51:32;;;;;;;5.25;3.33;;;16.90;99.90;;;;;;5037413;28;20454;-70
2022/08/12 04:54:00;;;;;;;7.75;3.08;;;16.90;99.90;;;;;;5037229;28;20099;-69
2022/08/12 04:56:26;;;;;;;6.15;3.22;;;16.90;99.90;;;;;;5037296;28;20055;-70
2022/08/12 04:58:52;;;;;;;7.82;2.70;;;17.00;99.90;;;;;;5037631;28;20041;-70
2022/08/12 05:01:18;;;;;;;7.75;3.30;;;16.90;99.90;;;;;;5036960;28;20199;-70
2022/08/12 05:03:44;;;;;;;6.47;3.17;;;17.10;99.90;;;;;;5037029;28;20365;-70
2022/08/12 05:06:10;;;;;;;5.68;3.05;;;17.10;99.90;;;;;;5037074;28;20051;-70
2022/08/12 05:08:35;;;;;;;6.00;3.58;;;17.10;99.90;;;;;;5036874;28;20041;-70
2022/08/12 05:11:03;;;;;;;7.20;2.70;;;17.10;99.90;;;;;;5019549;28;20046;-70
2022/08/12 05:13:33;;;;;;;6.95;3.20;;;17.20;99.90;;;;;;5036624;28;20468;-70
2022/08/12 05:15:59;;;;;;;13.90;4.20;;;17.20;99.90;;;;;;5019859;28;20046;-70
2022/08/12 05:18:26;;;;;;;7.03;3.78;;;17.30;99.90;;;;;;5037201;28;20056;-69
2022/08/12 05:20:52;;;;;;;5.82;3.17;;;17.30;99.90;;;;;;5037184;28;20045;-69
2022/08/12 05:23:19;;;;;;;7.82;2.97;;;17.30;99.90;;;;;;5037014;28;20052;-69
2022/08/12 05:25:47;;;;;;;7.88;3.05;;;17.40;99.90;;;;;;5036592;28;20041;-70
2022/08/12 05:28:14;;;;;;;6.47;3.42;;;17.50;99.90;;;;;;5036262;28;20056;-70
2022/08/12 05:30:41;;;;;;;9.57;3.47;;;17.40;99.90;;;;;;5036738;28;20048;-70
2022/08/12 05:33:08;;;;;;;6.00;3.42;;;17.60;99.90;;;;;;5037280;28;20432;-70
2022/08/12 05:35:35;;;;;;;6.85;3.45;;;17.50;99.90;;;;;;5036616;28;20138;-70
2022/08/12 05:40:47;;;;;;;6.07;3.15;;;17.60;99.90;;;;;;5035808;28;20049;-69
2022/08/12 05:43:13;;;;;;;8.45;3.65;;;17.80;99.90;;;;;;5036653;28;20045;-70
2022/08/12 05:45:38;;;;;;;8.43;3.47;;;17.90;99.90;;;;;;5036814;28;20046;-70
2022/08/12 05:48:05;;;;;;;7.38;4.50;;;18.20;99.90;;;;;;5036479;28;20060;-70
2022/08/12 05:50:31;;;;;;;5.32;3.33;;;19.20;99.90;;;;;;5035914;28;20057;-70
2022/08/12 05:52:57;;;;;;;5.97;2.92;;;20.70;99.90;;;;;;5035863;28;20055;-70
2022/08/12 05:55:22;;;;;;;5.30;2.90;;;22.20;99.90;;;;;;5018834;28;20373;-70
2022/08/12 05:57:56;;;;;;;7.65;2.92;;;23.50;99.90;;;;;;5018676;28;20470;-70
2022/08/12 06:00:24;;;;;;;9.90;2.47;;;24.70;99.90;;;;;;5036264;28;20037;-70
2022/08/12 06:02:59;;;;;;;4.70;2.20;;;25.60;99.90;;;;;;5036834;28;20337;-70
2022/08/12 06:05:33;;;;;;;7.60;2.42;;;26.40;99.50;;;;;;5035871;28;20164;-70
2022/08/12 06:07:59;;;;;;;3.15;1.90;;;27.20;97.90;;;;;;5035951;28;20060;-70
2022/08/12 06:10:25;;;;;;;4.25;2.30;;;27.70;97.60;;;;;;5035425;28;20505;-71
2022/08/12 06:12:51;;;;;;;6.13;2.40;;;28.30;95.80;;;;;;5018799;28;20049;-70
2022/08/12 06:15:18;;;;;;;4.97;2.15;;;28.50;96.50;;;;;;5035925;28;20107;-71
2022/08/12 06:17:45;;;;;;;4.35;2.13;;;28.70;94.40;;;;;;5036004;28;20115;-71
2022/08/12 06:20:15;;;;;;;4.93;2.40;;;29.00;94.90;;;;;;5035619;28;20128;-71
2022/08/12 06:22:44;;;;;;;8.02;2.28;;;29.60;94.80;;;;;;5036049;28;20400;-70
2022/08/12 06:25:17;;;;;;;5.65;1.80;;;29.80;93.40;;;;;;5035456;28;20048;-71
2022/08/12 06:27:47;;;;;;;5.10;2.53;;;29.90;92.70;;;;;;5035578;28;20486;-71
2022/08/12 06:30:19;;;;;;;4.53;1.70;;;30.10;92.00;;;;;;5035695;28;20045;-71
2022/08/12 06:32:48;;;;;;;6.40;2.13;;;30.30;92.30;;;;;;5035799;28;20480;-71
2022/08/12 06:35:16;;;;;;;6.07;2.40;;;30.40;92.10;;;;;;5036089;28;20386;-71
2022/08/12 06:37:50;;;;;;;4.28;1.85;;;30.70;92.10;;;;;;5017691;28;20068;-72
2022/08/12 06:42:46;;;;;;;5.53;2.35;;;31.10;90.80;;;;;;5034893;28;20033;-71
2022/08/12 06:43:06;;;;;;;4.13;1.55;;;31.40;91.30;;;;;;5035107;28;20144;-71
2022/08/12 06:45:32;;;;;;;6.85;2.15;;;31.70;91.60;;;;;;5035206;28;20124;-71
2022/08/12 06:48:05;;;;;;;5.13;2.10;;;31.90;90.60;;;;;;5035018;28;20045;-71
2022/08/12 06:50:31;;;;;;;6.25;2.03;;;31.80;90.70;;;;;;5035474;28;20060;-71
2022/08/12 06:52:56;;;;;;;5.18;1.80;;;31.90;90.80;;;;;;5034846;28;20037;-71
2022/08/12 06:55:24;;;;;;;11.02;1.90;;;31.90;89.40;;;;;;5034671;28;20054;-71
2022/08/12 06:57:56;;;;;;;3.42;1.77;;;32.00;90.40;;;;;;5035500;28;20057;-71
2022/08/12 07:00:24;;;;;;;6.90;2.05;;;31.70;90.00;;;;;;5035134;28;20088;-71
2022/08/12 07:02:51;;;;;;;4.30;1.88;;;30.90;90.40;;;;;;5035024;28;20045;-70
2022/08/12 07:05:23;;;;;;;5.13;2.08;;;30.10;91.00;;;;;;5035243;28;20042;-70
2022/08/12 07:07:51;;;;;;;6.32;1.75;;;29.60;91.20;;;;;;5035315;28;20045;-71
2022/08/12 07:10:24;;;;;;;5.38;2.45;;;29.00;91.20;;;;;;5034180;28;20037;-70
2022/08/12 07:12:56;;;;;;;5.20;1.73;;;28.10;91.90;;;;;;5034632;28;20042;-71
2022/08/12 07:15:24;;;;;;;4.50;2.15;;;27.60;92.20;;;;;;5034950;28;20049;-71
2022/08/12 07:20:43;;;;;;;5.07;1.83;;;27.30;92.60;;;;;;5034658;28;20050;-70
2022/08/12 07:23:10;;;;;;;11.15;2.25;;;27.70;92.60;;;;;;5035085;28;20068;-71
2022/08/12 07:25:38;;;;;;;9.50;2.50;;;28.20;92.20;;;;;;5034428;28;20092;-71
2022/08/12 07:28:22;;;;;;;3.85;1.70;;;28.80;91.80;;;;;;5035615;28;20048;-72
2022/08/12 07:30:48;;;;;;;4.70;2.00;;;29.60;91.40;;;;;;5035025;28;20034;-71
2022/08/12 07:33:15;;;;;;;3.33;1.77;;;29.90;90.50;;;;;;5034893;28;20131;-69
2022/08/12 07:35:46;;;;;;;5.55;2.05;;;30.40;90.90;;;;;;5035179;28;20034;-69
2022/08/12 07:38:32;;;;;;;3.75;1.80;;;30.80;90.80;;;;;;5034821;28;20157;-69
2022/08/12 07:41:06;;;;;;;4.30;1.50;;;31.30;90.50;;;;;;5034102;28;20103;-68
2022/08/12 07:43:35;;;;;;;4.68;2.00;;;31.70;88.90;;;;;;5035241;28;20147;-69
2022/08/12 07:46:03;;;;;;;2.75;1.50;;;31.70;89.40;;;;;;5034658;28;20049;-69
2022/08/12 07:48:35;;;;;;;6.18;2.17;;;32.00;90.20;;;;;;5034572;28;20045;-70
2022/08/12 07:51:01;;;;;;;5.30;2.13;;;32.30;89.60;;;;;;5037866;28;20056;-69
2022/08/12 07:53:27;;;;;;;7.18;2.17;;;32.40;89.90;;;;;;5021354;28;20049;-70
2022/08/12 07:55:52;;;;;;;9.27;1.63;;;32.60;89.80;;;;;;5038192;28;20373;-71
2022/08/12 07:58:18;;;;;;;4.78;1.20;;;32.80;89.40;;;;;;5038371;28;20120;-70
2022/08/12 08:00:44;;;;;;;6.13;1.90;;;33.10;89.50;;;;;;5021172;28;20061;-70
2022/08/12 08:03:12;;;;;;;5.28;2.03;;;32.60;87.20;;;;;;5038412;28;20038;-70
2022/08/12 08:05:48;;;;;;;5.00;1.60;;;32.60;86.60;;;;;;5038942;28;20088;-69
2022/08/12 08:08:25;;;;;;;5.82;1.75;;;32.50;87.50;;;;;;5038455;28;20052;-70
2022/08/12 08:12:52;;;;;;;4.28;1.70;;;32.60;88.20;;;;;;5037853;28;20060;-70
2022/08/12 08:13:40;;;;;;;6.07;1.60;;;32.70;88.10;;;;;;5037867;28;20123;-70
2022/08/12 08:16:08;;;;;;;3.53;1.90;;;32.70;88.10;;;;;;5038244;28;20049;-70
2022/08/12 08:18:35;;;;;;;4.65;1.80;;;32.90;85.70;;;;;;5038782;28;20041;-70
2022/08/12 08:21:02;;;;;;;4.90;1.98;;;32.90;86.70;;;;;;5038043;28;20045;-70
2022/08/12 08:24:13;;;;;;;7.07;1.92;;;32.40;85.90;;;;;;5037487;28;20120;-69
2022/08/12 08:26:14;;;;;;;5.72;1.80;;;32.20;86.50;;;;;;5037714;28;20501;-70
2022/08/12 08:28:43;;;;;;;4.05;1.90;;;32.00;84.80;;;;;;5038250;28;20096;-70
2022/08/12 08:31:12;;;;;;;4.32;1.67;;;31.90;85.90;;;;;;5038351;28;20037;-69
2022/08/12 08:33:38;;;;;;;5.40;1.80;;;31.90;86.70;;;;;;5038182;28;20110;-70
2022/08/12 08:36:05;;;;;;;4.75;1.92;;;32.40;86.40;;;;;;5037930;28;20429;-69
2022/08/12 08:38:31;;;;;;;5.00;1.55;;;32.30;85.50;;;;;;5036847;28;20064;-70
2022/08/12 08:43:40;;;;;;;4.43;1.63;;;32.40;85.50;;;;;;5037662;28;20057;-70
2022/08/12 08:46:06;;;;;;;7.20;1.73;;;32.90;86.50;;;;;;5037143;28;20049;-70
2022/08/12 08:48:33;;;;;;;7.80;1.83;;;32.60;85.90;;;;;;5037575;28;20049;-70
2022/08/12 08:50:59;;;;;;;4.40;1.90;;;32.80;85.60;;;;;;5037525;28;20045;-70
2022/08/12 08:53:25;;;;;;;5.78;1.83;;;33.00;85.60;;;;;;5037837;28;20358;-70
2022/08/12 08:55:52;;;;;;;4.20;1.67;;;33.10;84.80;;;;;;5037399;28;20037;-70
2022/08/12 08:58:20;;;;;;;7.13;2.17;;;33.10;84.50;;;;;;5037219;28;20034;-70
2022/08/12 09:00:48;;;;;;;4.43;1.42;;;33.10;84.70;;;;;;5036565;28;20473;-69
2022/08/12 09:03:14;;;;;;;5.60;1.75;;;33.10;85.80;;;;;;5037394;28;20076;-70
2022/08/12 09:05:39;;;;;;;7.22;1.70;;;32.80;84.40;;;;;;5037427;28;20434;-69
2022/08/12 09:08:05;;;;;;;3.58;1.50;;;32.80;85.50;;;;;;5037338;28;20045;-70
2022/08/12 09:10:32;;;;;;;5.88;1.80;;;32.60;86.20;;;;;;5037816;28;20070;-70
2022/08/12 09:15:43;;;;;;;3.60;1.48;;;31.90;86.00;;;;;;5036822;28;20485;-70
2022/08/12 09:18:10;;;;;;;5.60;1.83;;;31.40;86.50;;;;;;5036916;28;20116;-70
2022/08/12 09:20:37;;;;;;;7.03;1.98;;;31.00;87.20;;;;;;5037010;28;20081;-70
2022/08/12 09:23:09;;;;;;;5.78;1.70;;;30.80;86.90;;;;;;5037060;28;20047;-70
2022/08/12 09:25:40;;;;;;;5.15;1.73;;;30.40;87.00;;;;;;5037321;28;20410;-70
2022/08/12 09:28:10;;;;;;;4.80;1.70;;;30.20;87.40;;;;;;5036367;28;20069;-70
2022/08/12 09:30:38;;;;;;;5.65;2.05;;;30.00;86.90;;;;;;5037215;28;20046;-70
2022/08/12 09:33:05;;;;;;;9.75;1.85;;;29.90;86.70;;;;;;5036755;28;20041;-70
2022/08/12 09:35:32;;;;;;;4.45;1.60;;;29.90;87.50;;;;;;5036980;28;20057;-70
2022/08/12 09:38:03;;;;;;;3.60;1.40;;;30.00;86.80;;;;;;5036401;28;20107;-70
2022/08/12 09:40:29;;;;;;;3.08;1.80;;;30.20;85.80;;;;;;5036357;28;20064;-70
2022/08/12 09:45:45;;;;;;;3.30;1.55;;;30.70;84.10;;;;;;5036407;28;20404;-69
2022/08/12 09:48:18;;;;;;;3.33;1.37;;;31.30;84.70;;;;;;5018915;28;20049;-69
2022/08/12 09:50:49;;;;;;;2.92;1.38;;;31.70;84.40;;;;;;5036967;28;20285;-71
2022/08/12 09:53:26;;;;;;;4.68;1.52;;;31.90;83.50;;;;;;5036756;28;20126;-70
2022/08/12 09:55:56;;;;;;;6.18;1.83;;;31.60;82.80;;;;;;5036939;28;20347;-69
2022/08/12 09:58:27;;;;;;;4.13;1.58;;;31.20;83.90;;;;;;5036314;28;20057;-69
2022/08/12 10:01:01;;;;;;;4.28;2.05;;;30.80;82.60;;;;;;5035293;28;20045;-70
2022/08/12 10:03:35;;;;;;;8.90;2.60;;;30.50;84.10;;;;;;5035963;28;20128;-70
2022/08/12 10:06:06;;;;;;;4.28;1.42;;;30.30;83.10;;;;;;5035873;28;20183;-70
2022/08/12 10:08:34;;;;;;;3.10;1.80;;;30.30;84.00;;;;;;5036308;28;20092;-69
2022/08/12 10:13:48;;;;;;;6.65;1.70;;;30.10;82.90;;;;;;5034325;28;20057;-70
2022/08/12 10:16:27;;;;;;;3.60;1.55;;;30.30;82.60;;;;;;5035516;28;20366;-69
2022/08/12 10:19:00;;;;;;;4.78;2.05;;;30.30;83.00;;;;;;5035730;28;20050;-70
2022/08/12 10:21:35;;;;;;;6.82;1.48;;;30.30;82.40;;;;;;5035884;28;20096;-70
2022/08/12 10:24:14;;;;;;;6.53;1.65;;;30.30;80.80;;;;;;5035821;28;20103;-70
2022/08/12 10:29:38;;;;;;;8.70;2.15;;;30.30;79.90;;;;;;5035290;28;20061;-70
2022/08/12 10:32:05;;;;;;;6.85;1.70;;;30.40;79.20;;;;;;5035056;28;20033;-71
2022/08/12 10:34:31;;;;;;;3.58;1.60;;;30.40;79.20;;;;;;5035346;28;20111;-71
2022/08/12 10:36:58;;;;;;;7.63;1.73;;;30.50;79.70;;;;;;5017898;28;20085;-71
2022/08/12 10:39:26;;;;;;;3.70;1.50;;;30.60;79.20;;;;;;5035172;28;20469;-71
2022/08/12 10:44:37;;;;;;;5.70;1.50;;;30.70;78.50;;;;;;5035542;28;20057;-71
2022/08/12 10:47:03;;;;;;;3.33;1.58;;;30.90;79.40;;;;;;5035163;28;20033;-71
2022/08/12 10:49:33;;;;;;;5.55;1.48;;;31.00;78.60;;;;;;5035313;28;20045;-70
2022/08/12 10:52:01;;;;;;;3.45;1.67;;;30.90;76.10;;;;;;5035374;28;20150;-70
2022/08/12 10:54:27;;;;;;;4.40;1.48;;;31.00;76.80;;;;;;5035468;28;20045;-70
2022/08/12 10:56:59;;;;;;;3.08;1.52;;;31.00;76.70;;;;;;5035472;28;20110;-71
2022/08/12 10:59:28;;;;;;;9.40;1.80;;;31.10;77.50;;;;;;5035247;28;20492;-71
2022/08/12 11:01:57;;;;;;;2.80;1.30;;;31.20;76.00;;;;;;5034879;28;20146;-71
2022/08/12 11:04:29;;;;;;;11.13;1.63;;;31.20;75.30;;;;;;5034994;28;20171;-70
2022/08/12 11:06:56;;;;;;;2.53;1.30;;;31.30;76.50;;;;;;5035239;28;20057;-70
2022/08/12 11:09:29;;;;;;;3.25;1.63;;;31.30;73.80;;;;;;5035351;28;20114;-70
2022/08/12 11:11:55;;;;;;;8.57;1.60;;;31.30;74.40;;;;;;5035106;28;20361;-70
2022/08/12 11:14:27;;;;;;;5.88;1.30;;;31.40;75.80;;;;;;5034847;28;20052;-70
2022/08/12 11:17:00;;;;;;;2.33;1.23;;;31.40;74.60;;;;;;5017530;28;20401;-71
2022/08/12 11:19:27;;;;;;;3.45;1.30;;;31.30;74.20;;;;;;5034517;28;20053;-70
2022/08/12 11:21:54;;;;;;;3.85;1.30;;;31.40;74.70;;;;;;5035211;28;20438;-70
2022/08/12 11:24:23;;;;;;;3.90;1.40;;;31.40;74.00;;;;;;5035505;28;20038;-70
2022/08/12 11:26:50;;;;;;;2.78;1.20;;;31.20;73.80;;;;;;5038832;28;20037;-70
2022/08/12 11:29:17;;;;;;;5.22;1.65;;;31.30;75.80;;;;;;5021955;28;20364;-71
2022/08/12 11:31:43;;;;;;;3.78;1.35;;;31.50;75.30;;;;;;5039135;28;20041;-70
2022/08/12 11:34:08;;;;;;;3.22;1.42;;;31.50;74.40;;;;;;5038752;28;20474;-70
2022/08/12 11:36:34;;;;;;;4.00;1.40;;;31.60;74.60;;;;;;5038280;28;20061;-70
2022/08/12 11:39:00;;;;;;;3.17;1.27;;;31.70;74.80;;;;;;5038940;28;20049;-70
2022/08/12 11:41:25;;;;;;;4.78;1.40;;;31.90;74.50;;;;;;5039217;28;20037;-70
2022/08/12 11:43:51;;;;;;;5.00;1.40;;;31.80;74.00;;;;;;5039356;28;20091;-70
2022/08/12 11:46:19;;;;;;;4.32;1.45;;;31.80;74.50;;;;;;5038997;28;20053;-70
2022/08/12 11:48:45;;;;;;;3.00;1.45;;;31.80;73.80;;;;;;5038641;28;20060;-70
2022/08/12 11:51:11;;;;;;;2.75;1.35;;;32.00;74.60;;;;;;5038416;28;20045;-71
2022/08/12 11:53:36;;;;;;;4.35;1.10;;;32.20;74.00;;;;;;5038677;28;20060;-70
2022/08/12 11:56:05;;;;;;;5.07;1.60;;;32.20;74.00;;;;;;5038365;28;20183;-71
2022/08/12 11:58:31;;;;;;;3.88;1.20;;;32.20;72.90;;;;;;5039179;28;20064;-71
2022/08/12 12:00:57;;;;;;;1.92;1.15;;;31.90;72.50;;;;;;5038360;28;20042;-70
2022/08/12 12:03:23;;;;;;;3.97;1.15;;;31.70;72.30;;;;;;5038344;28;20053;-70
2022/08/12 12:05:49;;;;;;;1.80;1.00;;;31.90;73.20;;;;;;5039036;28;20049;-70
2022/08/12 12:08:22;;;;;;;3.00;1.10;;;31.80;71.70;;;;;;5038084;28;20037;-70
2022/08/12 12:10:49;;;;;;;5.78;1.42;;;31.70;71.90;;;;;;5038170;28;20053;-71
2022/08/12 12:13:15;;;;;;;4.85;1.67;;;31.70;72.30;;;;;;5037887;28;20573;-70
2022/08/12 12:15:41;;;;;;;2.78;1.42;;;31.80;72.40;;;;;;5038175;28;20153;-70
2022/08/12 12:18:22;;;;;;;3.80;1.40;;;31.70;72.30;;;;;;5037630;28;20041;-71
2022/08/12 12:20:49;;;;;;;3.80;1.33;;;31.70;72.60;;;;;;5038261;28;20057;-71
2022/08/12 12:23:14;;;;;;;2.95;1.00;;;31.60;72.10;;;;;;5038103;28;20042;-71
2022/08/12 12:25:40;;;;;;;2.97;1.20;;;31.60;72.20;;;;;;5037800;28;20060;-70
2022/08/12 12:28:05;;;;;;;1.90;1.00;;;31.70;73.10;;;;;;5038101;28;20132;-71
2022/08/12 12:30:32;;;;;;;2.70;1.50;;;31.90;73.40;;;;;;5037597;28;20049;-71
2022/08/12 12:32:58;;;;;;;2.40;1.10;;;32.10;73.00;;;;;;5037780;28;20041;-71
2022/08/12 12:35:23;;;;;;;5.18;1.52;;;32.10;72.50;;;;;;5037800;28;20434;-71
2022/08/12 12:38:03;;;;;;;2.97;1.23;;;32.40;71.90;;;;;;5019358;28;20046;-71
2022/08/12 12:40:30;;;;;;;5.53;1.65;;;32.20;71.10;;;;;;5037899;28;20053;-70
2022/08/12 12:42:56;;;;;;;3.92;1.42;;;32.10;71.80;;;;;;5037477;28;20446;-70
2022/08/12 12:45:22;;;;;;;5.90;1.85;;;32.20;70.90;;;;;;5037956;28;20041;-70
2022/08/12 12:48:03;;;;;;;2.55;1.13;;;32.10;71.60;;;;;;5037252;28;20045;-70
2022/08/12 12:50:34;;;;;;;6.03;1.30;;;32.10;70.60;;;;;;5037142;28;20484;-70
2022/08/12 12:53:00;;;;;;;3.10;1.20;;;32.10;71.80;;;;;;5037889;28;20041;-70
2022/08/12 12:55:26;;;;;;;5.07;1.23;;;32.20;71.30;;;;;;5037760;28;20041;-71
2022/08/12 12:57:53;;;;;;;3.58;1.25;;;32.20;71.40;;;;;;5037552;28;20076;-72
2022/08/12 13:00:20;;;;;;;4.03;1.10;;;32.40;72.10;;;;;;5037220;28;20390;-70
2022/08/12 13:02:57;;;;;;;2.13;1.20;;;32.50;71.20;;;;;;5017520;28;20362;-71
2022/08/12 13:05:37;;;;;;;3.85;1.20;;;32.40;71.10;;;;;;5017290;28;20053;-71
2022/08/12 13:08:20;;;;;;;6.30;1.50;;;32.40;70.30;;;;;;5017765;28;20197;-71
2022/08/12 13:10:46;;;;;;;5.63;1.40;;;32.30;70.50;;;;;;5018006;28;20077;-71
2022/08/12 13:13:12;;;;;;;3.08;1.33;;;32.30;71.80;;;;;;5017085;28;20081;-71
2022/08/12 13:15:37;;;;;;;3.65;1.15;;;32.20;70.70;;;;;;5024683;28;20049;-70
2022/08/12 13:18:03;;;;;;;5.13;1.60;;;32.30;72.00;;;;;;5037588;28;20092;-71
2022/08/12 13:20:30;;;;;;;6.85;1.30;;;32.50;72.90;;;;;;5036755;28;20048;-70
2022/08/12 13:22:56;;;;;;;3.88;1.45;;;32.60;72.10;;;;;;5037147;28;20136;-70
2022/08/12 13:25:23;;;;;;;3.03;1.23;;;32.70;71.90;;;;;;5036954;28;20041;-71
2022/08/12 13:27:49;;;;;;;2.95;1.50;;;32.70;72.00;;;;;;5037405;28;20077;-71
2022/08/12 13:30:21;;;;;;;3.03;1.30;;;32.80;71.60;;;;;;5036636;28;20123;-71
2022/08/12 13:32:49;;;;;;;2.70;1.27;;;32.70;71.70;;;;;;5036365;28;20095;-71
2022/08/12 13:35:15;;;;;;;3.65;1.35;;;32.80;72.50;;;;;;5037322;28;20065;-70
2022/08/12 13:37:42;;;;;;;5.38;1.40;;;32.90;71.80;;;;;;5036395;28;20061;-71
2022/08/12 13:40:09;;;;;;;2.58;1.30;;;32.90;71.90;;;;;;5037259;28;20060;-71
2022/08/12 13:42:38;;;;;;;4.22;1.63;;;32.90;71.70;;;;;;5036489;28;20061;-71
2022/08/12 13:45:07;;;;;;;1.88;1.00;;;32.80;71.40;;;;;;5036714;28;20050;-70
2022/08/12 13:47:56;;;;;;;4.18;1.30;;;32.60;71.40;;;;;;5035991;28;20099;-71
2022/08/12 13:50:31;;;;;;;2.80;1.20;;;32.60;71.40;;;;;;5036022;28;20049;-71
2022/08/12 13:52:59;;;;;;;2.97;1.45;;;32.70;72.50;;;;;;5036205;28;20057;-71
2022/08/12 13:55:25;;;;;;;2.33;1.23;;;32.70;71.50;;;;;;5036105;28;20049;-71
2022/08/12 13:57:52;;;;;;;2.25;1.23;;;32.50;71.10;;;;;;5036688;28;20089;-70
2022/08/12 14:00:18;;;;;;;2.75;1.20;;;32.50;71.80;;;;;;5036024;28;20442;-71
2022/08/12 14:02:43;;;;;;;3.58;1.33;;;32.40;71.70;;;;;;5035755;28;20052;-70
2022/08/12 14:05:09;;;;;;;4.50;1.30;;;32.50;71.60;;;;;;5035952;28;20144;-71
2022/08/12 14:07:55;;;;;;;4.43;1.38;;;32.50;71.50;;;;;;5036397;28;20045;-70
2022/08/12 14:10:35;;;;;;;4.57;1.27;;;32.60;71.10;;;;;;5036290;28;20041;-71
2022/08/12 14:13:06;;;;;;;4.07;1.75;;;32.40;71.10;;;;;;5036670;28;20120;-71
2022/08/12 14:15:34;;;;;;;4.03;1.27;;;32.30;70.90;;;;;;5018509;28;20119;-70
2022/08/12 14:18:07;;;;;;;2.45;1.27;;;32.40;72.00;;;;;;5035275;28;20445;-71
2022/08/12 14:20:33;;;;;;;3.45;1.35;;;32.30;71.10;;;;;;5036366;28;20049;-70
2022/08/12 14:22:59;;;;;;;4.15;1.30;;;32.30;70.90;;;;;;5036157;28;20095;-71
2022/08/12 14:25:27;;;;;;;5.57;1.33;;;32.20;71.30;;;;;;5035632;28;20084;-71
2022/08/12 14:27:54;;;;;;;2.22;1.25;;;32.20;71.50;;;;;;5035697;28;20049;-71
2022/08/12 14:30:20;;;;;;;3.05;1.30;;;32.20;71.60;;;;;;5035512;28;20345;-71
2022/08/12 14:32:46;;;;;;;19.35;2.72;;;32.30;72.30;;;;;;5035686;28;20434;-71
2022/08/12 14:35:11;;;;;;;5.63;1.80;;;32.40;72.30;;;;;;5035390;28;20073;-71
2022/08/12 14:37:38;;;;;;;3.10;1.50;;;32.50;71.90;;;;;;5035337;28;20449;-71
2022/08/12 14:40:04;;;;;;;5.45;1.85;;;32.50;72.30;;;;;;5035484;28;20099;-70
2022/08/12 14:42:30;;;;;;;5.53;1.55;;;32.30;71.40;;;;;;5035681;28;20053;-70